sensor_id;sensor_type;location;lat;lon;timestamp;P1;durP1;ratioP1;P2;durP2;ratioP2
3095;SDS011;1558;42.700;23.360;2022-10-31T00:01:25;6.37;;;5.77;;
3095;SDS011;1558;42.700;23.360;2022-10-31T00:03:56;5.90;;;5.17;;
3095;SDS011;1558;42.700;23.360;2022-10-31T00:06:24;5.77;;;5.20;;
3095;SDS011;1558;42.700;23.360;2022-10-31T00:08:53;6.70;;;5.20;;
3095;SDS011;1558;42.700;23.360;2022-10-31T00:11:22;7.73;;;5.30;;
3095;SDS011;1558;42.700;23.360;2022-10-31T00:13:50;8.70;;;5.60;;
3095;SDS011;1558;42.700;23.360;2022-10-31T00:16:19;6.67;;;5.73;;
3095;SDS011;1558;42.700;23.360;2022-10-31T00:18:48;5.77;;;5.17;;
3095;SDS011;1558;42.700;23.360;2022-10-31T00:21:18;6.90;;;5.43;;
3095;SDS011;1558;42.700;23.360;2022-10-31T00:23:46;6.80;;;5.50;;
3095;SDS011;1558;42.700;23.360;2022-10-31T00:26:14;6.83;;;5.60;;
3095;SDS011;1558;42.700;23.360;2022-10-31T00:28:42;6.07;;;5.40;;
3095;SDS011;1558;42.700;23.360;2022-10-31T00:31:11;6.63;;;5.00;;
3095;SDS011;1558;42.700;23.360;2022-10-31T00:33:40;6.20;;;5.60;;
3095;SDS011;1558;42.700;23.360;2022-10-31T00:36:11;5.60;;;5.03;;
3095;SDS011;1558;42.700;23.360;2022-10-31T00:38:41;6.63;;;5.23;;
3095;SDS011;1558;42.700;23.360;2022-10-31T00:41:10;6.50;;;5.80;;
3095;SDS011;1558;42.700;23.360;2022-10-31T00:43:38;6.07;;;5.23;;
3095;SDS011;1558;42.700;23.360;2022-10-31T00:46:06;7.27;;;5.63;;
3095;SDS011;1558;42.700;23.360;2022-10-31T00:48:34;6.33;;;5.33;;
3095;SDS011;1558;42.700;23.360;2022-10-31T00:51:02;6.43;;;5.73;;
3095;SDS011;1558;42.700;23.360;2022-10-31T00:53:30;7.90;;;5.67;;
3095;SDS011;1558;42.700;23.360;2022-10-31T00:55:59;8.83;;;6.13;;
3095;SDS011;1558;42.700;23.360;2022-10-31T00:58:27;7.30;;;6.60;;
3095;SDS011;1558;42.700;23.360;2022-10-31T01:00:55;7.57;;;6.67;;
3095;SDS011;1558;42.700;23.360;2022-10-31T01:03:23;7.80;;;6.83;;
3095;SDS011;1558;42.700;23.360;2022-10-31T01:05:56;9.97;;;7.07;;
3095;SDS011;1558;42.700;23.360;2022-10-31T01:08:25;9.53;;;8.20;;
3095;SDS011;1558;42.700;23.360;2022-10-31T01:11:03;8.80;;;7.90;;
3095;SDS011;1558;42.700;23.360;2022-10-31T01:13:33;10.60;;;8.67;;
3095;SDS011;1558;42.700;23.360;2022-10-31T01:16:03;11.03;;;9.93;;
3095;SDS011;1558;42.700;23.360;2022-10-31T01:18:32;11.67;;;9.87;;
3095;SDS011;1558;42.700;23.360;2022-10-31T01:21:02;12.03;;;10.43;;
3095;SDS011;1558;42.700;23.360;2022-10-31T01:23:31;12.67;;;11.37;;
3095;SDS011;1558;42.700;23.360;2022-10-31T01:26:02;11.27;;;10.17;;
3095;SDS011;1558;42.700;23.360;2022-10-31T01:28:32;13.63;;;10.57;;
3095;SDS011;1558;42.700;23.360;2022-10-31T01:31:01;12.20;;;10.90;;
3095;SDS011;1558;42.700;23.360;2022-10-31T01:33:31;13.47;;;11.03;;
3095;SDS011;1558;42.700;23.360;2022-10-31T01:35:59;13.53;;;11.87;;
3095;SDS011;1558;42.700;23.360;2022-10-31T01:38:27;13.17;;;10.70;;
3095;SDS011;1558;42.700;23.360;2022-10-31T01:40:55;13.60;;;10.77;;
3095;SDS011;1558;42.700;23.360;2022-10-31T01:43:26;12.57;;;11.27;;
3095;SDS011;1558;42.700;23.360;2022-10-31T01:46:09;12.50;;;11.10;;
3095;SDS011;1558;42.700;23.360;2022-10-31T01:48:39;12.63;;;10.70;;
3095;SDS011;1558;42.700;23.360;2022-10-31T01:51:09;13.17;;;11.43;;
3095;SDS011;1558;42.700;23.360;2022-10-31T01:53:41;19.23;;;13.07;;
3095;SDS011;1558;42.700;23.360;2022-10-31T01:56:10;17.80;;;15.10;;
3095;SDS011;1558;42.700;23.360;2022-10-31T01:58:41;18.00;;;15.00;;
3095;SDS011;1558;42.700;23.360;2022-10-31T02:01:10;15.77;;;13.50;;
3095;SDS011;1558;42.700;23.360;2022-10-31T02:03:39;17.77;;;14.27;;
3095;SDS011;1558;42.700;23.360;2022-10-31T02:06:08;16.70;;;13.83;;
3095;SDS011;1558;42.700;23.360;2022-10-31T02:08:45;16.57;;;13.47;;
3095;SDS011;1558;42.700;23.360;2022-10-31T02:11:13;17.53;;;13.63;;
3095;SDS011;1558;42.700;23.360;2022-10-31T02:13:44;17.77;;;13.37;;
3095;SDS011;1558;42.700;23.360;2022-10-31T02:16:12;16.40;;;13.10;;
3095;SDS011;1558;42.700;23.360;2022-10-31T02:18:39;13.90;;;11.87;;
3095;SDS011;1558;42.700;23.360;2022-10-31T02:21:11;15.43;;;12.23;;
3095;SDS011;1558;42.700;23.360;2022-10-31T02:23:59;13.30;;;11.90;;
3095;SDS011;1558;42.700;23.360;2022-10-31T02:26:41;14.33;;;12.33;;
3095;SDS011;1558;42.700;23.360;2022-10-31T02:32:33;13.67;;;12.27;;
3095;SDS011;1558;42.700;23.360;2022-10-31T02:35:12;16.13;;;11.97;;
3095;SDS011;1558;42.700;23.360;2022-10-31T02:37:50;14.10;;;11.90;;
3095;SDS011;1558;42.700;23.360;2022-10-31T02:40:25;12.73;;;11.27;;
3095;SDS011;1558;42.700;23.360;2022-10-31T02:42:57;14.27;;;11.13;;
3095;SDS011;1558;42.700;23.360;2022-10-31T02:45:33;13.87;;;12.27;;
3095;SDS011;1558;42.700;23.360;2022-10-31T02:48:10;13.53;;;12.00;;
3095;SDS011;1558;42.700;23.360;2022-10-31T02:50:42;13.40;;;12.07;;
3095;SDS011;1558;42.700;23.360;2022-10-31T02:53:17;15.00;;;11.80;;
3095;SDS011;1558;42.700;23.360;2022-10-31T02:55:54;14.77;;;11.50;;
3095;SDS011;1558;42.700;23.360;2022-10-31T02:58:26;12.70;;;11.40;;
3095;SDS011;1558;42.700;23.360;2022-10-31T03:01:07;13.50;;;11.50;;
3095;SDS011;1558;42.700;23.360;2022-10-31T03:04:00;13.27;;;10.23;;
3095;SDS011;1558;42.700;23.360;2022-10-31T03:06:38;11.53;;;10.20;;
3095;SDS011;1558;42.700;23.360;2022-10-31T03:09:14;11.90;;;9.90;;
3095;SDS011;1558;42.700;23.360;2022-10-31T03:11:51;11.50;;;10.20;;
3095;SDS011;1558;42.700;23.360;2022-10-31T03:14:26;12.27;;;10.00;;
3095;SDS011;1558;42.700;23.360;2022-10-31T03:17:07;14.77;;;11.17;;
3095;SDS011;1558;42.700;23.360;2022-10-31T03:19:40;11.73;;;10.63;;
3095;SDS011;1558;42.700;23.360;2022-10-31T03:22:12;12.83;;;11.53;;
3095;SDS011;1558;42.700;23.360;2022-10-31T03:24:44;11.97;;;10.70;;
3095;SDS011;1558;42.700;23.360;2022-10-31T03:27:15;12.43;;;11.13;;
3095;SDS011;1558;42.700;23.360;2022-10-31T03:29:48;11.83;;;10.60;;
3095;SDS011;1558;42.700;23.360;2022-10-31T03:32:19;11.80;;;10.70;;
3095;SDS011;1558;42.700;23.360;2022-10-31T03:34:53;12.27;;;10.93;;
3095;SDS011;1558;42.700;23.360;2022-10-31T03:37:25;12.47;;;11.33;;
3095;SDS011;1558;42.700;23.360;2022-10-31T03:39:55;11.53;;;10.40;;
3095;SDS011;1558;42.700;23.360;2022-10-31T03:42:27;10.93;;;9.80;;
3095;SDS011;1558;42.700;23.360;2022-10-31T03:44:58;13.37;;;11.03;;
3095;SDS011;1558;42.700;23.360;2022-10-31T03:47:31;13.47;;;10.47;;
3095;SDS011;1558;42.700;23.360;2022-10-31T03:50:01;13.30;;;10.30;;
3095;SDS011;1558;42.700;23.360;2022-10-31T03:52:31;13.93;;;10.93;;
3095;SDS011;1558;42.700;23.360;2022-10-31T03:55:05;14.73;;;11.37;;
3095;SDS011;1558;42.700;23.360;2022-10-31T03:57:37;13.17;;;11.37;;
3095;SDS011;1558;42.700;23.360;2022-10-31T04:00:12;13.43;;;11.20;;
3095;SDS011;1558;42.700;23.360;2022-10-31T04:02:42;14.60;;;11.13;;
3095;SDS011;1558;42.700;23.360;2022-10-31T04:05:18;12.43;;;11.20;;
3095;SDS011;1558;42.700;23.360;2022-10-31T04:07:49;13.77;;;10.90;;
3095;SDS011;1558;42.700;23.360;2022-10-31T04:10:21;12.53;;;10.77;;
3095;SDS011;1558;42.700;23.360;2022-10-31T04:12:59;12.63;;;10.67;;
3095;SDS011;1558;42.700;23.360;2022-10-31T04:15:31;12.67;;;11.23;;
3095;SDS011;1558;42.700;23.360;2022-10-31T04:18:00;14.27;;;12.40;;
3095;SDS011;1558;42.700;23.360;2022-10-31T04:20:33;21.07;;;19.10;;
3095;SDS011;1558;42.700;23.360;2022-10-31T04:23:02;19.90;;;17.90;;
3095;SDS011;1558;42.700;23.360;2022-10-31T04:25:36;26.10;;;23.60;;
3095;SDS011;1558;42.700;23.360;2022-10-31T04:28:04;28.20;;;25.70;;
3095;SDS011;1558;42.700;23.360;2022-10-31T04:30:32;24.50;;;21.93;;
3095;SDS011;1558;42.700;23.360;2022-10-31T04:32:59;26.93;;;21.30;;
3095;SDS011;1558;42.700;23.360;2022-10-31T04:35:28;19.60;;;17.60;;
3095;SDS011;1558;42.700;23.360;2022-10-31T04:37:57;19.50;;;16.50;;
3095;SDS011;1558;42.700;23.360;2022-10-31T04:40:25;21.27;;;19.07;;
3095;SDS011;1558;42.700;23.360;2022-10-31T04:42:53;20.30;;;16.60;;
3095;SDS011;1558;42.700;23.360;2022-10-31T04:45:21;19.73;;;14.67;;
3095;SDS011;1558;42.700;23.360;2022-10-31T04:47:49;17.60;;;12.30;;
3095;SDS011;1558;42.700;23.360;2022-10-31T04:50:17;15.87;;;11.87;;
3095;SDS011;1558;42.700;23.360;2022-10-31T04:52:45;14.13;;;12.50;;
3095;SDS011;1558;42.700;23.360;2022-10-31T04:55:15;15.30;;;12.73;;
3095;SDS011;1558;42.700;23.360;2022-10-31T04:57:43;12.87;;;11.53;;
3095;SDS011;1558;42.700;23.360;2022-10-31T05:00:14;14.93;;;12.13;;
3095;SDS011;1558;42.700;23.360;2022-10-31T05:02:44;12.50;;;11.30;;
3095;SDS011;1558;42.700;23.360;2022-10-31T05:05:12;16.73;;;12.37;;
3095;SDS011;1558;42.700;23.360;2022-10-31T05:07:41;13.67;;;12.33;;
3095;SDS011;1558;42.700;23.360;2022-10-31T05:10:11;21.33;;;12.90;;
3095;SDS011;1558;42.700;23.360;2022-10-31T05:12:46;14.37;;;12.63;;
3095;SDS011;1558;42.700;23.360;2022-10-31T05:15:15;14.13;;;12.73;;
3095;SDS011;1558;42.700;23.360;2022-10-31T05:17:44;16.67;;;13.63;;
3095;SDS011;1558;42.700;23.360;2022-10-31T05:20:12;16.07;;;13.60;;
3095;SDS011;1558;42.700;23.360;2022-10-31T05:22:44;17.43;;;13.63;;
3095;SDS011;1558;42.700;23.360;2022-10-31T05:25:13;17.10;;;13.20;;
3095;SDS011;1558;42.700;23.360;2022-10-31T05:27:41;16.37;;;13.30;;
3095;SDS011;1558;42.700;23.360;2022-10-31T05:30:14;14.83;;;11.93;;
3095;SDS011;1558;42.700;23.360;2022-10-31T05:32:44;15.80;;;12.17;;
3095;SDS011;1558;42.700;23.360;2022-10-31T05:35:13;16.43;;;12.30;;
3095;SDS011;1558;42.700;23.360;2022-10-31T05:37:42;19.37;;;12.97;;
3095;SDS011;1558;42.700;23.360;2022-10-31T05:40:11;23.07;;;13.47;;
3095;SDS011;1558;42.700;23.360;2022-10-31T05:42:41;17.60;;;13.63;;
3095;SDS011;1558;42.700;23.360;2022-10-31T05:45:10;21.60;;;14.97;;
3095;SDS011;1558;42.700;23.360;2022-10-31T05:47:42;24.57;;;13.73;;
3095;SDS011;1558;42.700;23.360;2022-10-31T05:50:16;21.10;;;13.30;;
3095;SDS011;1558;42.700;23.360;2022-10-31T05:52:45;18.80;;;13.87;;
3095;SDS011;1558;42.700;23.360;2022-10-31T05:55:13;25.80;;;14.23;;
3095;SDS011;1558;42.700;23.360;2022-10-31T05:57:40;17.23;;;12.47;;
3095;SDS011;1558;42.700;23.360;2022-10-31T06:00:09;19.50;;;13.63;;
3095;SDS011;1558;42.700;23.360;2022-10-31T06:02:38;16.07;;;13.17;;
3095;SDS011;1558;42.700;23.360;2022-10-31T06:05:06;16.33;;;13.63;;
3095;SDS011;1558;42.700;23.360;2022-10-31T06:07:35;19.07;;;12.97;;
3095;SDS011;1558;42.700;23.360;2022-10-31T06:10:04;14.80;;;13.17;;
3095;SDS011;1558;42.700;23.360;2022-10-31T06:12:34;17.60;;;12.43;;
3095;SDS011;1558;42.700;23.360;2022-10-31T06:15:04;20.03;;;14.47;;
3095;SDS011;1558;42.700;23.360;2022-10-31T06:17:33;23.27;;;16.17;;
3095;SDS011;1558;42.700;23.360;2022-10-31T06:20:03;17.47;;;14.73;;
3095;SDS011;1558;42.700;23.360;2022-10-31T06:22:32;22.93;;;15.90;;
3095;SDS011;1558;42.700;23.360;2022-10-31T06:24:59;29.73;;;18.53;;
3095;SDS011;1558;42.700;23.360;2022-10-31T06:27:27;25.17;;;18.67;;
3095;SDS011;1558;42.700;23.360;2022-10-31T06:29:55;30.80;;;20.17;;
3095;SDS011;1558;42.700;23.360;2022-10-31T06:32:23;28.37;;;18.40;;
3095;SDS011;1558;42.700;23.360;2022-10-31T06:34:51;18.33;;;15.90;;
3095;SDS011;1558;42.700;23.360;2022-10-31T06:37:20;24.13;;;18.73;;
3095;SDS011;1558;42.700;23.360;2022-10-31T06:39:48;27.07;;;18.87;;
3095;SDS011;1558;42.700;23.360;2022-10-31T06:42:16;27.67;;;18.80;;
3095;SDS011;1558;42.700;23.360;2022-10-31T06:44:44;19.60;;;16.03;;
3095;SDS011;1558;42.700;23.360;2022-10-31T06:47:12;18.23;;;14.85;;
3095;SDS011;1558;42.700;23.360;2022-10-31T06:49:40;16.98;;;14.95;;
3095;SDS011;1558;42.700;23.360;2022-10-31T06:52:08;15.93;;;12.88;;
3095;SDS011;1558;42.700;23.360;2022-10-31T06:54:37;15.43;;;14.00;;
3095;SDS011;1558;42.700;23.360;2022-10-31T06:57:05;17.42;;;14.25;;
3095;SDS011;1558;42.700;23.360;2022-10-31T06:59:33;17.50;;;15.35;;
3095;SDS011;1558;42.700;23.360;2022-10-31T07:02:00;23.55;;;17.33;;
3095;SDS011;1558;42.700;23.360;2022-10-31T07:04:29;19.00;;;17.00;;
3095;SDS011;1558;42.700;23.360;2022-10-31T07:06:56;21.98;;;17.55;;
3095;SDS011;1558;42.700;23.360;2022-10-31T07:09:24;19.40;;;15.88;;
3095;SDS011;1558;42.700;23.360;2022-10-31T07:11:54;18.10;;;15.95;;
3095;SDS011;1558;42.700;23.360;2022-10-31T07:14:21;14.77;;;13.48;;
3095;SDS011;1558;42.700;23.360;2022-10-31T07:16:49;16.27;;;13.98;;
3095;SDS011;1558;42.700;23.360;2022-10-31T07:19:18;17.75;;;15.35;;
3095;SDS011;1558;42.700;23.360;2022-10-31T07:21:46;17.25;;;15.55;;
3095;SDS011;1558;42.700;23.360;2022-10-31T07:24:13;19.98;;;17.85;;
3095;SDS011;1558;42.700;23.360;2022-10-31T07:26:41;19.38;;;16.05;;
3095;SDS011;1558;42.700;23.360;2022-10-31T07:29:13;21.10;;;18.73;;
3095;SDS011;1558;42.700;23.360;2022-10-31T07:31:41;19.90;;;17.75;;
3095;SDS011;1558;42.700;23.360;2022-10-31T07:34:10;22.90;;;17.73;;
3095;SDS011;1558;42.700;23.360;2022-10-31T07:36:38;20.20;;;17.38;;
3095;SDS011;1558;42.700;23.360;2022-10-31T07:39:05;19.15;;;17.15;;
3095;SDS011;1558;42.700;23.360;2022-10-31T07:41:33;19.75;;;17.55;;
3095;SDS011;1558;42.700;23.360;2022-10-31T07:44:01;20.63;;;18.42;;
3095;SDS011;1558;42.700;23.360;2022-10-31T07:46:30;23.42;;;19.15;;
3095;SDS011;1558;42.700;23.360;2022-10-31T07:48:59;23.17;;;19.10;;
3095;SDS011;1558;42.700;23.360;2022-10-31T07:51:27;20.67;;;17.73;;
3095;SDS011;1558;42.700;23.360;2022-10-31T07:53:55;20.67;;;18.75;;
3095;SDS011;1558;42.700;23.360;2022-10-31T07:56:23;22.75;;;20.45;;
3095;SDS011;1558;42.700;23.360;2022-10-31T07:58:50;20.38;;;18.52;;
3095;SDS011;1558;42.700;23.360;2022-10-31T08:01:18;22.17;;;19.08;;
3095;SDS011;1558;42.700;23.360;2022-10-31T08:03:47;22.13;;;17.92;;
3095;SDS011;1558;42.700;23.360;2022-10-31T08:06:15;19.83;;;17.77;;
3095;SDS011;1558;42.700;23.360;2022-10-31T08:08:43;22.83;;;18.77;;
3095;SDS011;1558;42.700;23.360;2022-10-31T08:11:11;23.33;;;18.10;;
3095;SDS011;1558;42.700;23.360;2022-10-31T08:13:39;22.38;;;16.73;;
3095;SDS011;1558;42.700;23.360;2022-10-31T08:16:09;21.02;;;16.20;;
3095;SDS011;1558;42.700;23.360;2022-10-31T08:18:36;20.45;;;16.40;;
3095;SDS011;1558;42.700;23.360;2022-10-31T08:21:06;22.30;;;18.05;;
3095;SDS011;1558;42.700;23.360;2022-10-31T08:23:34;22.30;;;17.25;;
3095;SDS011;1558;42.700;23.360;2022-10-31T08:26:02;20.98;;;18.20;;
3095;SDS011;1558;42.700;23.360;2022-10-31T08:28:29;22.50;;;16.83;;
3095;SDS011;1558;42.700;23.360;2022-10-31T08:30:57;20.13;;;16.27;;
3095;SDS011;1558;42.700;23.360;2022-10-31T08:33:26;29.42;;;18.13;;
3095;SDS011;1558;42.700;23.360;2022-10-31T08:35:54;21.23;;;18.20;;
3095;SDS011;1558;42.700;23.360;2022-10-31T08:38:23;21.25;;;16.30;;
3095;SDS011;1558;42.700;23.360;2022-10-31T08:40:51;17.70;;;15.90;;
3095;SDS011;1558;42.700;23.360;2022-10-31T08:43:19;19.63;;;16.40;;
3095;SDS011;1558;42.700;23.360;2022-10-31T08:45:48;18.95;;;15.40;;
3095;SDS011;1558;42.700;23.360;2022-10-31T08:48:16;17.25;;;15.32;;
3095;SDS011;1558;42.700;23.360;2022-10-31T08:50:45;16.52;;;14.82;;
3095;SDS011;1558;42.700;23.360;2022-10-31T08:53:14;17.23;;;15.57;;
3095;SDS011;1558;42.700;23.360;2022-10-31T08:55:45;16.77;;;14.88;;
3095;SDS011;1558;42.700;23.360;2022-10-31T08:58:14;16.88;;;14.40;;
3095;SDS011;1558;42.700;23.360;2022-10-31T09:00:43;18.40;;;15.18;;
3095;SDS011;1558;42.700;23.360;2022-10-31T09:03:13;18.15;;;16.50;;
3095;SDS011;1558;42.700;23.360;2022-10-31T09:05:42;20.30;;;18.05;;
3095;SDS011;1558;42.700;23.360;2022-10-31T09:08:12;16.92;;;15.13;;
3095;SDS011;1558;42.700;23.360;2022-10-31T09:10:42;16.27;;;14.55;;
3095;SDS011;1558;42.700;23.360;2022-10-31T09:13:12;16.17;;;14.52;;
3095;SDS011;1558;42.700;23.360;2022-10-31T09:15:41;15.77;;;14.18;;
3095;SDS011;1558;42.700;23.360;2022-10-31T09:18:11;21.25;;;16.10;;
3095;SDS011;1558;42.700;23.360;2022-10-31T09:20:40;18.50;;;14.68;;
3095;SDS011;1558;42.700;23.360;2022-10-31T09:23:09;15.23;;;13.80;;
3095;SDS011;1558;42.700;23.360;2022-10-31T09:25:39;17.25;;;15.30;;
3095;SDS011;1558;42.700;23.360;2022-10-31T09:28:14;17.88;;;15.40;;
3095;SDS011;1558;42.700;23.360;2022-10-31T09:30:45;15.30;;;13.70;;
3095;SDS011;1558;42.700;23.360;2022-10-31T09:33:14;19.48;;;13.95;;
3095;SDS011;1558;42.700;23.360;2022-10-31T09:35:42;15.38;;;13.93;;
3095;SDS011;1558;42.700;23.360;2022-10-31T09:38:11;17.98;;;16.00;;
3095;SDS011;1558;42.700;23.360;2022-10-31T09:40:41;15.75;;;13.80;;
3095;SDS011;1558;42.700;23.360;2022-10-31T09:43:14;15.00;;;13.35;;
3095;SDS011;1558;42.700;23.360;2022-10-31T09:45:53;19.70;;;15.90;;
3095;SDS011;1558;42.700;23.360;2022-10-31T09:48:34;16.73;;;14.98;;
3095;SDS011;1558;42.700;23.360;2022-10-31T09:51:23;15.70;;;12.77;;
3095;SDS011;1558;42.700;23.360;2022-10-31T09:53:56;14.65;;;12.50;;
3095;SDS011;1558;42.700;23.360;2022-10-31T09:56:29;15.93;;;12.52;;
3095;SDS011;1558;42.700;23.360;2022-10-31T09:59:02;15.80;;;12.48;;
3095;SDS011;1558;42.700;23.360;2022-10-31T10:01:42;14.15;;;12.65;;
3095;SDS011;1558;42.700;23.360;2022-10-31T10:04:19;17.23;;;12.23;;
3095;SDS011;1558;42.700;23.360;2022-10-31T10:06:57;16.38;;;14.68;;
3095;SDS011;1558;42.700;23.360;2022-10-31T10:09:30;13.30;;;11.88;;
3095;SDS011;1558;42.700;23.360;2022-10-31T10:12:00;12.73;;;10.70;;
3095;SDS011;1558;42.700;23.360;2022-10-31T10:14:45;12.70;;;11.35;;
3095;SDS011;1558;42.700;23.360;2022-10-31T10:17:31;11.48;;;10.38;;
3095;SDS011;1558;42.700;23.360;2022-10-31T10:23:02;14.50;;;12.35;;
3095;SDS011;1558;42.700;23.360;2022-10-31T10:25:53;10.65;;;9.55;;
3095;SDS011;1558;42.700;23.360;2022-10-31T10:28:35;13.73;;;11.05;;
3095;SDS011;1558;42.700;23.360;2022-10-31T10:31:08;15.35;;;13.57;;
3095;SDS011;1558;42.700;23.360;2022-10-31T10:33:42;12.48;;;10.02;;
3095;SDS011;1558;42.700;23.360;2022-10-31T10:36:25;13.80;;;11.38;;
3095;SDS011;1558;42.700;23.360;2022-10-31T10:38:58;13.63;;;10.20;;
3095;SDS011;1558;42.700;23.360;2022-10-31T10:41:31;12.15;;;8.95;;
3095;SDS011;1558;42.700;23.360;2022-10-31T10:44:00;11.65;;;8.65;;
3095;SDS011;1558;42.700;23.360;2022-10-31T10:46:33;12.48;;;8.18;;
3095;SDS011;1558;42.700;23.360;2022-10-31T10:49:29;11.90;;;8.98;;
3095;SDS011;1558;42.700;23.360;2022-10-31T10:52:05;11.60;;;9.32;;
3095;SDS011;1558;42.700;23.360;2022-10-31T10:55:03;8.35;;;7.07;;
3095;SDS011;1558;42.700;23.360;2022-10-31T10:57:44;9.27;;;7.00;;
3095;SDS011;1558;42.700;23.360;2022-10-31T11:00:21;9.57;;;7.65;;
3095;SDS011;1558;42.700;23.360;2022-10-31T11:02:51;10.80;;;7.55;;
3095;SDS011;1558;42.700;23.360;2022-10-31T11:05:23;10.07;;;6.28;;
3095;SDS011;1558;42.700;23.360;2022-10-31T11:07:57;10.32;;;7.25;;
3095;SDS011;1558;42.700;23.360;2022-10-31T11:10:25;13.40;;;8.38;;
3095;SDS011;1558;42.700;23.360;2022-10-31T11:13:04;12.20;;;8.07;;
3095;SDS011;1558;42.700;23.360;2022-10-31T11:15:50;10.07;;;6.03;;
3095;SDS011;1558;42.700;23.360;2022-10-31T11:18:24;7.28;;;6.00;;
3095;SDS011;1558;42.700;23.360;2022-10-31T11:20:55;17.27;;;8.63;;
3095;SDS011;1558;42.700;23.360;2022-10-31T11:23:25;7.80;;;5.80;;
3095;SDS011;1558;42.700;23.360;2022-10-31T11:25:55;13.00;;;7.28;;
3095;SDS011;1558;42.700;23.360;2022-10-31T11:28:24;9.00;;;5.75;;
3095;SDS011;1558;42.700;23.360;2022-10-31T11:30:55;6.50;;;5.35;;
3095;SDS011;1558;42.700;23.360;2022-10-31T11:33:28;8.98;;;6.00;;
3095;SDS011;1558;42.700;23.360;2022-10-31T11:35:58;8.77;;;5.80;;
3095;SDS011;1558;42.700;23.360;2022-10-31T11:38:30;10.45;;;5.47;;
3095;SDS011;1558;42.700;23.360;2022-10-31T11:41:05;12.73;;;8.23;;
3095;SDS011;1558;42.700;23.360;2022-10-31T11:43:38;7.88;;;4.93;;
3095;SDS011;1558;42.700;23.360;2022-10-31T11:46:14;6.13;;;5.38;;
3095;SDS011;1558;42.700;23.360;2022-10-31T11:48:48;9.88;;;5.43;;
3095;SDS011;1558;42.700;23.360;2022-10-31T11:51:20;10.45;;;5.68;;
3095;SDS011;1558;42.700;23.360;2022-10-31T11:53:50;12.25;;;6.13;;
3095;SDS011;1558;42.700;23.360;2022-10-31T11:56:25;9.80;;;6.57;;
3095;SDS011;1558;42.700;23.360;2022-10-31T11:58:56;8.80;;;5.57;;
3095;SDS011;1558;42.700;23.360;2022-10-31T12:01:28;7.07;;;5.38;;
3095;SDS011;1558;42.700;23.360;2022-10-31T12:04:03;6.40;;;5.05;;
3095;SDS011;1558;42.700;23.360;2022-10-31T12:06:35;9.07;;;6.38;;
3095;SDS011;1558;42.700;23.360;2022-10-31T12:09:09;7.82;;;5.95;;
3095;SDS011;1558;42.700;23.360;2022-10-31T12:11:47;7.65;;;5.22;;
3095;SDS011;1558;42.700;23.360;2022-10-31T12:14:25;12.38;;;6.10;;
3095;SDS011;1558;42.700;23.360;2022-10-31T12:17:05;9.52;;;6.13;;
3095;SDS011;1558;42.700;23.360;2022-10-31T12:19:42;9.07;;;5.50;;
3095;SDS011;1558;42.700;23.360;2022-10-31T12:22:23;8.57;;;5.30;;
3095;SDS011;1558;42.700;23.360;2022-10-31T12:25:09;7.57;;;5.47;;
3095;SDS011;1558;42.700;23.360;2022-10-31T12:27:55;10.00;;;5.65;;
3095;SDS011;1558;42.700;23.360;2022-10-31T12:30:36;10.93;;;5.72;;
3095;SDS011;1558;42.700;23.360;2022-10-31T12:33:23;10.10;;;5.53;;
3095;SDS011;1558;42.700;23.360;2022-10-31T12:36:12;10.00;;;5.40;;
3095;SDS011;1558;42.700;23.360;2022-10-31T12:39:02;10.85;;;5.68;;
3095;SDS011;1558;42.700;23.360;2022-10-31T12:41:50;10.15;;;5.03;;
3095;SDS011;1558;42.700;23.360;2022-10-31T12:44:34;8.13;;;4.97;;
3095;SDS011;1558;42.700;23.360;2022-10-31T12:47:21;7.63;;;5.00;;
3095;SDS011;1558;42.700;23.360;2022-10-31T12:50:10;7.32;;;5.57;;
3095;SDS011;1558;42.700;23.360;2022-10-31T12:52:50;9.05;;;5.70;;
3095;SDS011;1558;42.700;23.360;2022-10-31T12:55:34;7.82;;;5.35;;
3095;SDS011;1558;42.700;23.360;2022-10-31T12:58:09;10.02;;;5.38;;
3095;SDS011;1558;42.700;23.360;2022-10-31T13:00:42;10.80;;;5.95;;
3095;SDS011;1558;42.700;23.360;2022-10-31T13:03:19;12.63;;;6.22;;
3095;SDS011;1558;42.700;23.360;2022-10-31T13:05:53;8.52;;;5.25;;
3095;SDS011;1558;42.700;23.360;2022-10-31T13:08:28;13.10;;;6.38;;
3095;SDS011;1558;42.700;23.360;2022-10-31T13:11:01;6.70;;;5.25;;
3095;SDS011;1558;42.700;23.360;2022-10-31T13:13:35;10.60;;;5.05;;
3095;SDS011;1558;42.700;23.360;2022-10-31T13:16:08;20.88;;;7.20;;
3095;SDS011;1558;42.700;23.360;2022-10-31T13:18:42;8.13;;;5.47;;
3095;SDS011;1558;42.700;23.360;2022-10-31T13:21:15;10.27;;;5.50;;
3095;SDS011;1558;42.700;23.360;2022-10-31T13:23:50;12.45;;;5.47;;
3095;SDS011;1558;42.700;23.360;2022-10-31T13:26:22;10.27;;;5.00;;
3095;SDS011;1558;42.700;23.360;2022-10-31T13:29:02;11.15;;;5.38;;
3095;SDS011;1558;42.700;23.360;2022-10-31T13:31:32;10.80;;;4.85;;
3095;SDS011;1558;42.700;23.360;2022-10-31T13:34:02;8.40;;;5.10;;
3095;SDS011;1558;42.700;23.360;2022-10-31T13:36:36;7.90;;;4.72;;
3095;SDS011;1558;42.700;23.360;2022-10-31T13:39:14;9.65;;;5.53;;
3095;SDS011;1558;42.700;23.360;2022-10-31T13:41:51;7.30;;;4.95;;
3095;SDS011;1558;42.700;23.360;2022-10-31T13:44:24;10.13;;;4.75;;
3095;SDS011;1558;42.700;23.360;2022-10-31T13:46:58;7.55;;;4.88;;
3095;SDS011;1558;42.700;23.360;2022-10-31T13:49:36;9.85;;;5.20;;
3095;SDS011;1558;42.700;23.360;2022-10-31T13:52:11;9.90;;;5.40;;
3095;SDS011;1558;42.700;23.360;2022-10-31T13:54:44;7.60;;;4.85;;
3095;SDS011;1558;42.700;23.360;2022-10-31T13:57:15;7.63;;;5.10;;
3095;SDS011;1558;42.700;23.360;2022-10-31T13:59:47;5.72;;;4.63;;
3095;SDS011;1558;42.700;23.360;2022-10-31T14:02:19;10.43;;;5.00;;
3095;SDS011;1558;42.700;23.360;2022-10-31T14:04:55;9.13;;;5.60;;
3095;SDS011;1558;42.700;23.360;2022-10-31T14:07:25;10.02;;;5.90;;
3095;SDS011;1558;42.700;23.360;2022-10-31T14:09:58;9.73;;;5.65;;
3095;SDS011;1558;42.700;23.360;2022-10-31T14:12:29;8.07;;;5.50;;
3095;SDS011;1558;42.700;23.360;2022-10-31T14:15:03;9.95;;;6.10;;
3095;SDS011;1558;42.700;23.360;2022-10-31T14:17:44;12.18;;;5.43;;
3095;SDS011;1558;42.700;23.360;2022-10-31T14:23:12;7.40;;;4.85;;
3095;SDS011;1558;42.700;23.360;2022-10-31T14:26:06;9.75;;;5.75;;
3095;SDS011;1558;42.700;23.360;2022-10-31T14:28:49;8.57;;;5.47;;
3095;SDS011;1558;42.700;23.360;2022-10-31T14:31:27;7.50;;;5.70;;
3095;SDS011;1558;42.700;23.360;2022-10-31T14:33:59;7.30;;;4.85;;
3095;SDS011;1558;42.700;23.360;2022-10-31T14:36:31;9.05;;;5.15;;
3095;SDS011;1558;42.700;23.360;2022-10-31T14:39:10;12.73;;;6.30;;
3095;SDS011;1558;42.700;23.360;2022-10-31T14:41:51;10.02;;;5.25;;
3095;SDS011;1558;42.700;23.360;2022-10-31T14:47:30;10.45;;;6.05;;
3095;SDS011;1558;42.700;23.360;2022-10-31T14:50:25;14.52;;;7.18;;
3095;SDS011;1558;42.700;23.360;2022-10-31T14:53:05;14.63;;;7.15;;
3095;SDS011;1558;42.700;23.360;2022-10-31T14:55:45;16.50;;;7.47;;
3095;SDS011;1558;42.700;23.360;2022-10-31T14:58:18;10.60;;;5.90;;
3095;SDS011;1558;42.700;23.360;2022-10-31T15:00:50;15.77;;;7.07;;
3095;SDS011;1558;42.700;23.360;2022-10-31T15:03:22;15.32;;;8.27;;
3095;SDS011;1558;42.700;23.360;2022-10-31T15:05:58;15.95;;;8.70;;
3095;SDS011;1558;42.700;23.360;2022-10-31T15:08:32;13.02;;;7.28;;
3095;SDS011;1558;42.700;23.360;2022-10-31T15:11:03;14.43;;;7.57;;
3095;SDS011;1558;42.700;23.360;2022-10-31T15:13:43;32.92;;;10.05;;
3095;SDS011;1558;42.700;23.360;2022-10-31T15:16:13;15.70;;;6.68;;
3095;SDS011;1558;42.700;23.360;2022-10-31T15:18:53;15.80;;;6.38;;
3095;SDS011;1558;42.700;23.360;2022-10-31T15:21:24;15.25;;;6.30;;
3095;SDS011;1558;42.700;23.360;2022-10-31T15:23:55;14.93;;;6.20;;
3095;SDS011;1558;42.700;23.360;2022-10-31T15:26:32;10.40;;;5.15;;